Time;durP1;ratioP1;P1;durP2;ratioP2;P2;SDS_P1;SDS_P2;PMS_P1;PMS_P2;Temp;Humidity;BMP_temperature;BMP_pressure;BME280_temperature;BME280_humidity;BME280_pressure;Samples;Min_cycle;Max_cycle;Signal;HPM_P1;HPM_P2
2022/04/24 00:01:34;;;;;;;8.17;6.33;;;14.30;69.50;;;14.90;49.40;96698.09;5007953;28;123300;-92
2022/04/24 00:04:01;;;;;;;6.93;6.23;;;14.30;69.60;;;14.92;49.41;96694.94;5005998;28;123700;-93
2022/04/24 00:06:27;;;;;;;9.53;6.33;;;14.30;69.70;;;14.90;49.58;96698.09;5007418;28;114459;-94
2022/04/24 00:08:55;;;;;;;7.50;6.30;;;14.30;69.70;;;14.88;49.71;96700.47;5006082;28;113715;-93
2022/04/24 00:11:21;;;;;;;7.23;6.50;;;14.30;69.80;;;14.84;49.52;96696.88;5004639;28;123913;-94
2022/04/24 00:13:48;;;;;;;9.20;7.50;;;14.30;69.80;;;14.81;49.50;96697.69;5006132;28;123825;-93
2022/04/24 00:16:14;;;;;;;9.80;8.17;;;14.20;69.70;;;14.78;49.67;96702.03;5006251;28;113693;-93
2022/04/24 00:18:42;;;;;;;8.03;7.17;;;14.20;69.90;;;14.77;49.61;96699.63;5006735;28;114636;-92
2022/04/24 00:21:08;;;;;;;8.40;7.13;;;14.20;70.00;;;14.76;49.68;96700.84;5024171;28;123238;-95
2022/04/24 00:23:35;;;;;;;7.73;6.57;;;14.20;70.00;;;14.74;49.70;96690.09;5003817;28;123963;-93
2022/04/24 00:26:01;;;;;;;8.13;7.27;;;14.20;70.20;;;14.77;49.87;96685.72;5006946;28;113664;-93
2022/04/24 00:28:28;;;;;;;7.73;6.67;;;14.20;70.30;;;14.77;49.69;96689.31;5008461;28;113732;-94
2022/04/24 00:30:55;;;;;;;8.70;6.70;;;14.20;70.40;;;14.78;49.83;96679.00;5004717;28;122105;-93
2022/04/24 00:33:22;;;;;;;7.03;6.27;;;14.20;70.40;;;14.77;49.81;96664.28;5000666;28;123194;-94
2022/04/24 00:35:49;;;;;;;8.37;7.20;;;14.20;70.50;;;14.77;49.91;96671.84;4991775;28;113524;-93
2022/04/24 00:38:15;;;;;;;9.10;8.10;;;14.20;70.60;;;14.75;49.77;96671.44;5009924;28;113699;-93
2022/04/24 00:40:47;;;;;;;7.67;6.87;;;14.20;70.70;;;14.72;49.91;96664.69;5006420;28;123502;-94
2022/04/24 00:43:14;;;;;;;8.73;7.00;;;14.10;70.60;;;14.70;49.86;96666.28;4990333;28;123256;-94
2022/04/24 00:45:41;;;;;;;6.87;6.17;;;14.10;70.60;;;14.72;49.99;96664.69;5007296;28;114129;-94
2022/04/24 00:48:07;;;;;;;7.90;6.43;;;14.20;70.80;;;14.73;49.81;96662.69;5006458;28;113925;-93
2022/04/24 00:50:35;;;;;;;7.63;6.53;;;14.10;70.80;;;14.74;49.89;96656.72;5015283;28;123576;-94
2022/04/24 00:53:01;;;;;;;6.23;5.63;;;14.10;70.70;;;14.73;50.10;96652.38;5009421;27;122937;-94
2022/04/24 00:55:28;;;;;;;8.33;6.90;;;14.10;70.70;;;14.73;49.89;96643.25;5022190;28;113955;-94
2022/04/24 00:57:56;;;;;;;8.20;7.33;;;14.10;71.40;;;14.72;50.01;96655.53;5005127;28;115057;-94
2022/04/24 01:00:22;;;;;;;8.07;6.93;;;14.10;70.90;;;14.70;49.94;96649.59;5004975;28;124451;-93
2022/04/24 01:02:49;;;;;;;8.53;7.17;;;14.10;70.80;;;14.68;50.03;96646.41;5007039;28;124085;-93
2022/04/24 01:05:17;;;;;;;8.80;7.23;;;14.10;70.90;;;14.68;50.06;96643.63;5005047;28;114395;-93
2022/04/24 01:07:44;;;;;;;8.70;6.40;;;14.10;70.90;;;14.70;50.19;96633.72;5006053;28;113116;-94
2022/04/24 01:10:11;;;;;;;7.53;6.13;;;14.10;71.00;;;14.71;50.03;96631.72;5004565;28;124131;-93
2022/04/24 01:12:37;;;;;;;9.90;8.23;;;14.10;70.90;;;14.71;50.12;96645.63;5005715;28;123790;-93
2022/04/24 01:15:05;;;;;;;11.30;8.87;;;14.10;71.10;;;14.67;50.02;96636.44;5011725;28;114315;-93
2022/04/24 01:17:32;;;;;;;10.40;8.60;;;14.10;71.20;;;14.63;50.17;96642.00;5009315;28;113753;-95
2022/04/24 01:20:00;;;;;;;9.77;8.50;;;14.00;71.10;;;14.62;50.20;96653.53;4989104;28;123670;-95
2022/04/24 01:22:27;;;;;;;8.20;7.30;;;14.00;71.10;;;14.60;50.08;96653.13;5002432;28;124063;-93
2022/04/24 01:24:54;;;;;;;8.30;7.30;;;14.00;71.20;;;14.58;50.18;96654.28;5004953;28;115120;-94
2022/04/24 01:27:21;;;;;;;8.07;7.07;;;14.00;71.20;;;14.60;50.02;96653.13;5020690;27;113979;-93
2022/04/24 01:29:47;;;;;;;8.50;7.60;;;14.00;71.20;;;14.61;50.14;96643.59;5004606;28;124147;-93
2022/04/24 01:32:14;;;;;;;9.73;7.70;;;14.00;71.30;;;14.60;50.25;96661.47;5017866;28;123988;-92
2022/04/24 01:34:40;;;;;;;7.63;6.83;;;14.00;71.30;;;14.61;50.22;96654.72;5019376;28;114049;-93
2022/04/24 01:37:08;;;;;;;9.27;7.03;;;14.00;71.30;;;14.62;50.34;96659.88;5005116;28;113604;-93
2022/04/24 01:39:34;;;;;;;7.70;6.80;;;14.00;71.30;;;14.65;50.14;96658.31;5003101;28;123084;-93
2022/04/24 01:42:00;;;;;;;7.83;6.63;;;14.00;71.30;;;14.67;50.14;96658.69;5005241;28;123969;-93
2022/04/24 01:44:27;;;;;;;7.80;7.00;;;14.00;71.30;;;14.68;50.06;96658.31;5004238;28;115126;-94
2022/04/24 01:46:54;;;;;;;6.53;5.90;;;14.10;71.40;;;14.69;50.19;96662.66;5006883;28;114301;-93
2022/04/24 01:49:20;;;;;;;7.33;6.47;;;14.10;71.40;;;14.70;50.08;96660.72;5004765;28;124461;-93
2022/04/24 01:51:48;;;;;;;8.40;6.40;;;14.10;71.40;;;14.72;49.98;96663.88;5015195;28;123006;-93
2022/04/24 01:54:15;;;;;;;7.80;6.80;;;14.10;71.40;;;14.72;50.14;96663.88;5006526;28;115291;-93
2022/04/24 01:56:41;;;;;;;6.83;6.13;;;14.10;71.40;;;14.71;50.15;96668.66;4992439;28;113891;-93
2022/04/24 01:59:08;;;;;;;7.40;6.07;;;14.10;71.40;;;14.73;50.16;96696.06;5008148;28;124679;-93
2022/04/24 02:01:36;;;;;;;7.27;6.10;;;14.10;71.40;;;14.73;50.16;96698.84;5006983;28;122739;-94
2022/04/24 02:04:03;;;;;;;7.23;6.53;;;14.10;71.50;;;14.74;50.06;96722.66;5010492;28;113387;-95
2022/04/24 02:06:30;;;;;;;8.10;7.00;;;14.10;71.50;;;14.73;50.05;96729.41;5007970;28;114091;-95
2022/04/24 02:08:56;;;;;;;7.63;6.53;;;14.10;71.40;;;14.69;49.94;96718.25;5017124;28;124336;-94
2022/04/24 02:11:22;;;;;;;9.77;7.60;;;14.10;71.40;;;14.67;50.02;96717.06;5009363;28;121992;-93
2022/04/24 02:13:49;;;;;;;7.57;6.47;;;14.10;71.40;;;14.65;50.15;96714.69;5009723;28;114001;-92
2022/04/24 02:16:15;;;;;;;7.53;6.73;;;14.10;71.50;;;14.65;50.13;96708.34;5009527;28;113836;-94
2022/04/24 02:18:42;;;;;;;7.67;6.80;;;14.00;71.50;;;14.62;50.09;96715.47;5010618;28;124059;-95
2022/04/24 02:21:11;;;;;;;7.13;6.43;;;14.00;71.50;;;14.62;49.90;96721.03;5009231;28;123227;-93
2022/04/24 02:23:37;;;;;;;7.50;6.60;;;14.00;71.60;;;14.60;50.46;96725.38;5008508;28;114323;-93
2022/04/24 02:26:04;;;;;;;8.20;6.60;;;14.00;71.60;;;14.58;50.26;96728.53;5012550;28;113317;-93
2022/04/24 02:28:30;;;;;;;7.13;6.40;;;14.00;71.80;;;14.57;50.35;96736.09;4999606;28;124015;-93
2022/04/24 02:30:57;;;;;;;7.63;6.83;;;14.00;71.80;;;14.54;50.49;96734.09;5027935;28;122674;-93
2022/04/24 02:33:23;;;;;;;7.57;6.03;;;14.20;72.10;;;14.54;50.57;96733.31;5008816;28;114162;-94
2022/04/24 02:35:50;;;;;;;9.27;6.67;;;13.90;71.90;;;14.53;50.48;96732.50;5027833;28;114319;-93
2022/04/24 02:38:16;;;;;;;7.77;6.40;;;13.90;72.00;;;14.51;50.68;96732.06;5008723;28;123325;-94
2022/04/24 02:40:43;;;;;;;6.80;6.10;;;13.90;72.10;;;14.50;50.81;96749.91;5010138;28;124061;-93
2022/04/24 02:43:09;;;;;;;7.90;6.87;;;13.90;72.20;;;14.46;50.87;96756.66;5005575;28;113503;-93
2022/04/24 02:45:36;;;;;;;8.70;7.80;;;13.90;72.50;;;14.37;51.08;96759.75;5026091;28;113412;-95
2022/04/24 02:48:04;;;;;;;8.97;7.77;;;13.80;72.50;;;14.32;51.41;96774.03;5008520;28;124100;-94
2022/04/24 02:50:30;;;;;;;8.10;6.90;;;13.80;72.70;;;14.29;51.61;96747.81;5008007;28;122990;-92
2022/04/24 02:52:57;;;;;;;8.90;6.67;;;13.80;73.00;;;14.29;51.68;96752.56;5009471;28;114331;-95
2022/04/24 02:55:25;;;;;;;7.70;6.90;;;14.00;73.50;;;14.27;51.71;96747.41;5027811;28;112184;-95
2022/04/24 02:57:52;;;;;;;7.77;6.87;;;13.70;73.40;;;14.26;52.03;96740.25;5023500;28;124006;-93
2022/04/24 03:00:24;;;;;;;8.50;7.00;;;13.70;73.80;;;14.26;52.17;96742.22;5010257;28;124136;-93
2022/04/24 03:02:53;;;;;;;8.33;6.80;;;13.70;74.10;;;14.24;52.26;96739.03;5009254;28;113967;-94
2022/04/24 03:05:22;;;;;;;7.43;6.73;;;13.70;74.30;;;14.24;52.30;96730.69;5026470;27;113980;-93
2022/04/24 03:07:49;;;;;;;7.60;6.63;;;13.70;74.60;;;14.23;52.42;96737.44;5011280;28;124038;-92
2022/04/24 03:10:19;;;;;;;7.77;6.97;;;13.70;74.70;;;14.20;52.64;96752.13;5009413;28;123590;-93
2022/04/24 03:12:45;;;;;;;6.63;5.97;;;13.60;74.90;;;14.17;52.74;96739.78;5012086;28;114168;-92
2022/04/24 03:15:14;;;;;;;7.17;6.47;;;13.60;75.00;;;14.15;52.75;96745.72;5010750;28;114370;-93
2022/04/24 03:17:41;;;;;;;7.87;6.80;;;13.60;75.30;;;14.14;52.94;96744.13;5009636;28;124119;-93
2022/04/24 03:20:10;;;;;;;7.97;6.47;;;13.60;75.50;;;14.11;52.96;96742.13;5010174;28;121780;-95
2022/04/24 03:22:38;;;;;;;8.37;7.13;;;13.60;75.70;;;14.10;53.14;96748.88;4991951;28;113583;-94
2022/04/24 03:25:07;;;;;;;7.50;6.80;;;13.50;76.50;;;14.10;53.27;96748.06;5009337;28;115008;-93
2022/04/24 03:27:35;;;;;;;8.20;6.80;;;13.50;76.00;;;14.11;53.62;96744.91;5006028;28;124453;-93
2022/04/24 03:30:06;;;;;;;6.97;6.17;;;13.50;76.30;;;14.13;53.39;96738.97;5006391;28;123397;-92
2022/04/24 03:32:33;;;;;;;6.23;5.63;;;13.50;76.60;;;14.13;53.49;96745.34;4993308;28;112619;-94
2022/04/24 03:35:02;;;;;;;7.60;6.67;;;13.50;76.80;;;14.15;53.85;96742.94;4994327;28;113073;-94
2022/04/24 03:37:29;;;;;;;7.20;6.50;;;13.60;77.20;;;14.17;53.76;96752.88;5008544;28;124110;-92
2022/04/24 03:39:56;;;;;;;8.57;6.27;;;13.50;77.30;;;14.17;53.70;96750.91;5008970;28;123711;-92
2022/04/24 03:42:22;;;;;;;7.50;6.70;;;13.60;77.60;;;14.19;53.81;96751.31;5009680;28;114248;-92
2022/04/24 03:44:49;;;;;;;6.80;6.00;;;13.60;77.80;;;14.20;53.92;96755.69;5009132;28;114326;-95
2022/04/24 03:47:15;;;;;;;6.77;6.10;;;13.60;77.90;;;14.21;53.92;96756.47;5006531;28;123357;-93
2022/04/24 03:49:42;;;;;;;7.53;6.30;;;13.60;78.10;;;14.21;54.06;96760.06;5011196;28;123855;-93
2022/04/24 03:52:11;;;;;;;8.27;6.47;;;13.60;78.10;;;14.22;54.02;96758.09;5009920;28;112451;-93
2022/04/24 03:54:38;;;;;;;8.00;6.80;;;13.60;78.30;;;14.23;53.97;96762.44;5040644;27;114276;-91
2022/04/24 03:57:05;;;;;;;7.70;6.90;;;13.60;78.40;;;14.21;54.06;96762.03;5015308;28;124154;-92
2022/04/24 03:59:31;;;;;;;7.60;6.80;;;13.60;78.40;;;14.18;54.03;96769.16;5009487;28;122486;-92
2022/04/24 04:01:58;;;;;;;8.47;7.30;;;13.60;78.40;;;14.14;54.12;96766.34;5006885;28;114682;-92
2022/04/24 04:04:25;;;;;;;7.90;7.10;;;13.60;78.50;;;14.11;54.27;96769.91;5009666;28;111967;-92
2022/04/24 04:06:52;;;;;;;8.80;6.60;;;13.50;78.50;;;14.08;54.26;96770.69;5026829;27;123740;-92
2022/04/24 04:09:21;;;;;;;8.10;7.10;;;13.50;78.50;;;14.05;54.18;96767.88;5019582;28;123460;-93
2022/04/24 04:11:47;;;;;;;8.03;6.53;;;13.50;78.70;;;14.05;54.45;96781.75;5006237;28;115344;-92
2022/04/24 04:14:14;;;;;;;7.43;6.60;;;13.50;78.70;;;14.03;54.60;96773.81;5007717;28;115220;-92
2022/04/24 04:16:40;;;;;;;7.80;7.00;;;13.40;78.80;;;14.00;54.55;96779.34;5007633;28;124505;-92
2022/04/24 04:19:07;;;;;;;8.83;7.33;;;13.60;79.30;;;13.97;54.62;96774.53;5007550;28;123649;-93
2022/04/24 04:21:34;;;;;;;7.37;6.40;;;13.40;79.20;;;13.96;54.69;96779.31;5006696;28;113437;-92
2022/04/24 04:24:00;;;;;;;9.60;7.93;;;13.40;79.40;;;13.95;54.62;96777.72;5009065;28;112092;-92
2022/04/24 04:26:27;;;;;;;8.50;7.10;;;13.40;79.50;;;13.93;54.78;96791.19;5005912;28;124102;-94
2022/04/24 04:28:53;;;;;;;8.17;6.73;;;13.30;79.50;;;13.91;54.78;96799.09;5008690;28;123698;-92
2022/04/24 04:31:20;;;;;;;7.97;7.10;;;13.30;79.60;;;13.91;54.94;96796.31;5007009;28;114823;-93
2022/04/24 04:33:46;;;;;;;8.27;6.40;;;13.30;79.80;;;13.91;54.88;96805.44;5008207;28;113265;-93
2022/04/24 04:36:13;;;;;;;7.67;6.97;;;13.30;79.90;;;13.91;54.99;96813.75;5024684;28;122116;-92
2022/04/24 04:38:39;;;;;;;8.43;6.67;;;13.30;80.10;;;13.93;54.93;96835.59;5008106;28;123893;-93
2022/04/24 04:41:06;;;;;;;9.67;8.30;;;13.30;80.30;;;13.92;55.32;96868.13;5009318;28;113492;-93
2022/04/24 04:43:32;;;;;;;15.50;11.97;;;13.30;80.60;;;13.84;56.13;96860.91;5025919;28;113106;-94
2022/04/24 04:45:59;;;;;;;12.10;9.73;;;13.20;81.80;;;13.68;56.41;96863.13;5005679;28;123754;-92
2022/04/24 04:48:26;;;;;;;14.73;8.80;;;13.10;82.10;;;13.50;57.12;96874.03;5007163;28;123019;-92
2022/04/24 04:50:54;;;;;;;9.50;6.60;;;13.00;82.70;;;13.29;57.60;96865.44;5008282;28;113351;-92
2022/04/24 04:53:22;;;;;;;9.90;4.80;;;12.90;83.10;;;13.06;57.55;96888.50;5026541;28;113094;-93
2022/04/24 04:55:50;;;;;;;5.17;3.33;;;12.70;83.40;;;12.80;57.80;96870.72;5006631;28;124480;-91
2022/04/24 04:58:17;;;;;;;3.30;2.30;;;12.40;83.00;;;12.59;58.01;96878.72;5011720;28;124557;-92
2022/04/24 05:01:03;;;;;;;2.00;1.83;;;12.20;83.50;;;12.35;58.01;96883.50;5017243;28;114313;-90
2022/04/24 05:03:32;;;;;;;3.07;1.30;;;12.00;83.70;;;12.12;58.38;96875.25;5016997;28;115393;-91
2022/04/24 05:06:17;;;;;;;2.40;1.43;;;11.80;83.90;;;11.89;58.61;96864.16;5023032;28;124252;-90
2022/04/24 05:08:46;;;;;;;2.17;1.30;;;11.60;84.40;;;11.72;59.17;96875.69;5020763;28;124596;-92
2022/04/24 05:11:12;;;;;;;1.20;1.10;;;11.40;84.90;;;11.63;59.95;96880.63;5025099;28;114934;-92
2022/04/24 05:13:38;;;;;;;1.57;1.10;;;11.30;85.90;;;11.54;60.45;96880.09;5025063;28;113201;-93
2022/04/24 05:16:25;;;;;;;2.30;1.10;;;11.20;86.50;;;11.40;60.90;96867.59;5027308;28;123851;-92
2022/04/24 05:19:15;;;;;;;1.10;0.90;;;11.10;87.00;;;11.28;60.79;96893.44;5028978;28;123525;-92
2022/04/24 05:22:02;;;;;;;2.10;0.97;;;10.90;87.20;;;11.19;61.05;96905.84;5031173;28;113618;-92
2022/04/24 05:24:29;;;;;;;1.03;0.90;;;10.80;87.80;;;11.06;61.16;96910.72;5027181;28;114754;-91
2022/04/24 05:30:37;;;;;;;0.90;0.80;;;10.60;88.20;;;10.77;62.06;96936.91;5028860;28;124787;-92
2022/04/24 05:34:01;;;;;;;1.00;0.90;;;10.50;89.10;;;10.65;62.25;96921.25;5031751;28;113946;-91
2022/04/24 05:36:28;;;;;;;2.50;0.90;;;10.40;89.20;;;10.57;62.61;96913.97;5033059;28;113961;-92
2022/04/24 05:39:51;;;;;;;1.00;0.87;;;10.30;89.80;;;10.50;62.52;96924.81;5030536;28;123842;-93
2022/04/24 05:42:18;;;;;;;1.10;0.83;;;10.20;89.80;;;10.43;62.77;96924.69;5029976;28;124438;-94
2022/04/24 05:44:47;;;;;;;0.90;0.80;;;10.20;90.20;;;10.40;62.91;96934.47;5050608;28;112513;-91
2022/04/24 05:47:33;;;;;;;1.50;0.90;;;10.10;90.20;;;10.38;63.16;96931.25;5033839;28;112987;-92
2022/04/24 05:50:18;;;;;;;1.10;0.80;;;10.10;90.50;;;10.34;63.25;96927.59;5033289;28;124728;-94
2022/04/24 05:57:26;;;;;;;1.00;0.90;;;10.00;90.60;;;10.21;63.93;96929.63;5036819;28;116141;-92
2022/04/24 05:59:53;;;;;;;2.10;0.80;;;9.90;91.30;;;10.16;64.24;96949.22;5043859;27;114801;-93
2022/04/24 06:02:40;;;;;;;1.30;0.80;;;9.80;91.60;;;10.09;64.45;96927.75;5040362;28;125032;-92
2022/04/24 06:08:49;;;;;;;1.00;0.80;;;9.70;91.80;;;10.01;64.33;96930.69;5039021;28;115223;-91
2022/04/24 06:15:04;;;;;;;1.67;0.77;;;9.70;92.10;;;9.93;65.18;96941.53;5036864;28;125112;-90
2022/04/24 06:17:33;;;;;;;1.30;0.80;;;9.60;92.40;;;9.90;64.89;96930.41;5035064;28;123865;-91
2022/04/24 06:58:11;;;;;;;0.80;0.80;;;9.50;93.50;;;9.89;65.74;96942.59;4924570;28;115976;-73
2022/04/24 07:04:19;;;;;;;1.37;0.80;;;9.50;93.70;;;9.90;66.12;96946.97;4923629;28;124348;-80
2022/04/24 07:10:28;;;;;;;2.60;1.00;;;9.50;93.70;;;9.93;65.87;96951.75;4924199;28;114932;-74
2022/04/24 07:16:36;;;;;;;0.90;0.70;;;9.60;93.90;;;9.99;65.86;96961.38;4924329;28;124817;-73
2022/04/24 07:20:01;;;;;;;1.43;0.80;;;9.60;93.90;;;10.03;65.98;96969.75;4924048;28;114839;-79
2022/04/24 08:15:29;;;;;;;1.10;1.00;;;10.00;93.60;;;10.42;65.32;96983.78;6042137;23;98903;31
2022/04/24 08:37:02;;;;;;;2.00;0.90;;;10.10;93.60;;;10.70;64.71;97025.13;5861001;23;98384;-77
2022/04/24 08:40:11;;;;;;;0.80;0.80;;;10.20;94.00;;;10.79;64.76;97018.25;4937831;28;115011;-89
2022/04/24 08:42:58;;;;;;;0.97;0.90;;;8.50;93.50;;;10.87;64.64;97016.47;4919655;28;112782;-88
2022/04/24 08:45:46;;;;;;;1.10;1.00;;;10.30;93.70;;;11.04;65.10;97032.69;4921526;28;124011;-88
2022/04/24 08:48:13;;;;;;;0.93;0.80;;;10.40;94.20;;;11.26;65.06;97030.41;4911824;28;123823;-84
2022/04/24 08:50:42;;;;;;;1.30;1.03;;;10.60;94.40;;;11.43;64.81;97038.28;4916006;28;115203;-86
2022/04/24 08:53:29;;;;;;;0.93;0.90;;;11.20;94.70;;;11.61;64.44;97024.06;4906013;28;114586;-87
2022/04/24 08:55:56;;;;;;;1.00;0.90;;;10.80;94.50;;;11.68;64.34;97029.72;4901838;28;124048;-86
2022/04/24 08:58:42;;;;;;;1.10;1.00;;;10.90;94.40;;;11.80;64.36;97024.06;4927188;28;124184;-86
2022/04/24 09:01:31;;;;;;;1.33;1.00;;;11.00;94.40;;;11.88;64.09;97036.13;4916400;28;113568;-86
2022/04/24 09:03:58;;;;;;;1.00;0.90;;;11.10;94.30;;;11.98;64.43;97031.94;4910346;28;113101;-87
2022/04/24 09:06:24;;;;;;;1.37;1.00;;;11.30;94.50;;;12.05;64.10;97037.63;4911588;28;123227;-87
2022/04/24 09:09:04;;;;;;;1.30;1.10;;;11.20;94.30;;;12.09;63.71;97036.53;4912310;28;123787;-88
2022/04/24 09:12:33;;;;;;;1.40;1.00;;;11.30;94.30;;;12.15;63.33;97042.56;4913334;28;114198;-87
2022/04/24 09:15:00;;;;;;;1.23;1.13;;;11.40;94.20;;;12.16;63.66;97053.25;4918330;28;113967;-83
2022/04/24 09:18:06;;;;;;;1.03;0.90;;;11.40;94.00;;;12.16;63.30;97052.47;4933686;28;124777;-87
2022/04/24 09:20:41;;;;;;;0.87;0.80;;;11.40;93.90;;;12.19;63.19;97056.47;5115223;23;124226;-77
2022/04/24 09:34:33;;;;;;;0.80;0.80;;;9.70;93.20;;;12.11;62.96;97061.06;4960762;28;115331;-86
2022/04/24 09:40:48;;;;;;;1.00;0.90;;;11.50;93.50;;;12.11;62.87;97061.88;4940714;28;126435;-77
2022/04/24 09:47:00;;;;;;;1.07;0.97;;;11.50;93.30;;;12.04;62.85;97052.63;4940598;28;115582;-76
2022/04/24 09:49:37;;;;;;;1.50;1.10;;;11.50;93.40;;;12.04;62.88;97060.94;4948124;28;114585;-82
2022/04/24 09:53:01;;;;;;;1.10;0.97;;;11.50;93.40;;;12.00;62.86;97068.34;4951029;28;123927;-84
2022/04/24 09:59:11;;;;;;;2.10;1.10;;;11.50;93.40;;;11.98;63.04;97068.72;4940802;28;115379;-78
2022/04/24 10:05:20;;;;;;;1.10;0.90;;;11.50;93.40;;;11.98;62.89;97074.25;4940173;28;125063;-78
2022/04/24 10:08:24;;;;;;;1.10;1.00;;;11.40;93.40;;;12.02;63.00;97074.34;4938318;28;124467;-85
2022/04/24 10:10:51;;;;;;;0.90;0.80;;;11.50;93.50;;;12.03;63.06;97082.25;4950884;28;114862;-90
2022/04/24 10:17:16;;;;;;;1.17;1.03;;;11.50;93.50;;;12.08;62.92;97089.47;4942763;28;125227;-87
2022/04/24 10:23:43;;;;;;;1.10;1.00;;;11.50;93.50;;;12.12;62.76;97091.16;4943912;28;115210;-80
2022/04/24 10:27:11;;;;;;;0.90;0.80;;;11.60;93.60;;;12.16;63.21;97083.72;4926531;28;113394;-87
2022/04/24 10:29:52;;;;;;;1.20;1.00;;;11.60;93.60;;;12.18;63.27;97086.13;4940703;28;123888;-85
2022/04/24 10:36:10;;;;;;;2.47;1.27;;;11.60;93.60;;;12.20;63.27;97088.53;4943370;28;114708;-89
2022/04/24 10:42:33;;;;;;;1.20;1.10;;;11.70;93.60;;;12.22;62.91;97100.03;4943550;28;125071;-79
2022/04/24 10:45:58;;;;;;;1.37;1.17;;;11.70;93.60;;;12.23;63.21;97096.13;4925936;28;122065;-82
2022/04/24 10:48:46;;;;;;;1.10;0.90;;;11.70;93.60;;;12.26;63.23;97095.38;4940102;28;114939;-90
2022/04/24 10:51:15;;;;;;;1.27;1.10;;;11.70;93.60;;;12.28;63.41;97093.88;4936053;28;115723;-89
2022/04/24 10:54:08;;;;;;;1.30;1.20;;;11.70;93.70;;;12.30;63.26;97102.56;4949752;28;124721;-87
2022/04/24 11:00:22;;;;;;;1.10;1.00;;;11.70;93.70;;;12.24;63.12;97097.72;4941408;28;115357;-89
2022/04/24 11:02:52;;;;;;;1.30;1.00;;;11.70;93.70;;;12.22;63.15;97095.31;4940515;28;113490;-88
2022/04/24 11:09:13;;;;;;;1.77;1.50;;;11.70;93.70;;;12.17;63.26;97103.94;4955226;28;124808;-90
2022/04/24 11:12:01;;;;;;;1.00;0.90;;;11.70;93.70;;;12.19;63.47;97114.63;4960373;28;114933;-89
2022/04/24 11:18:24;;;;;;;2.17;1.30;;;11.70;93.70;;;12.23;63.45;97116.31;4977797;28;125257;-90
2022/04/24 11:21:38;;;;;;;1.10;1.00;;;11.70;93.70;;;12.21;63.11;97110.31;4978633;28;123602;-91
2022/04/24 11:24:07;;;;;;;1.93;1.10;;;11.70;93.70;;;12.20;63.15;97114.28;4936326;28;113571;-90
2022/04/24 11:26:35;;;;;;;1.30;1.00;;;11.70;93.70;;;12.22;63.26;97130.50;4936942;28;113194;-92
2022/04/24 11:29:11;;;;;;;1.07;0.97;;;11.70;93.70;;;12.25;63.11;97121.47;4947209;28;123137;-91
2022/04/24 11:31:55;;;;;;;1.20;1.10;;;11.70;93.70;;;12.24;63.31;97115.13;4905587;28;124059;-91
2022/04/24 11:34:41;;;;;;;1.10;1.00;;;11.70;93.70;;;12.26;62.91;97123.88;4898215;28;114655;-90
2022/04/24 11:37:45;;;;;;;1.47;1.10;;;11.70;93.60;;;12.26;62.76;97134.16;4887722;28;111991;-90
2022/04/24 11:40:49;;;;;;;1.53;1.00;;;11.70;93.60;;;12.22;63.09;97131.28;4900661;28;124649;-90
2022/04/24 11:43:18;;;;;;;1.47;1.20;;;11.70;93.50;;;12.23;62.97;97130.16;4909769;28;123111;-88
2022/04/24 11:51:23;;;;;;;1.20;1.10;;;11.70;93.50;;;12.23;62.91;97130.16;4919355;28;125100;-89
2022/04/24 11:53:51;;;;;;;1.00;0.90;;;11.70;93.50;;;12.23;62.72;97135.69;4915643;28;123437;-89
2022/04/24 11:56:18;;;;;;;1.00;0.90;;;11.70;93.50;;;12.26;62.97;97139.69;4912823;28;113948;-90
2022/04/24 11:58:45;;;;;;;2.03;1.20;;;11.80;93.50;;;12.25;63.05;97138.06;4913411;28;113899;-88
2022/04/24 12:01:58;;;;;;;2.43;1.13;;;11.80;93.40;;;12.23;62.89;97146.75;4920445;28;123932;-90
2022/04/24 12:08:07;;;;;;;1.00;0.83;;;11.80;93.50;;;12.16;63.35;97154.91;4919763;28;115206;-89
2022/04/24 12:11:25;;;;;;;1.20;1.03;;;11.70;93.50;;;12.20;63.02;97141.94;4920134;28;113953;-86
2022/04/24 12:17:34;;;;;;;1.10;0.80;;;11.70;93.60;;;12.23;63.62;97140.44;4902068;28;124143;-87
2022/04/24 12:20:33;;;;;;;0.87;0.87;;;11.80;93.80;;;12.25;63.37;97138.06;4902903;28;114970;-80
2022/04/24 12:23:48;;;;;;;0.90;0.80;;;11.80;93.70;;;12.29;63.21;97148.06;4899858;28;113660;-85
2022/04/24 12:30:22;;;;;;;1.20;1.00;;;11.80;93.80;;;12.33;63.67;97142.59;4906683;28;124814;-85
2022/04/24 12:32:48;;;;;;;1.20;1.07;;;11.90;93.80;;;12.37;63.46;97144.28;4937127;28;115028;-88
2022/04/24 12:35:54;;;;;;;2.10;1.27;;;10.80;93.40;;;12.49;63.39;97139.75;4931244;28;113526;-88
2022/04/24 12:39:18;;;;;;;1.30;1.20;;;12.00;94.00;;;12.54;63.49;97145.00;4933846;28;123885;-87
2022/04/24 12:45:26;;;;;;;1.67;1.10;;;12.10;94.00;;;12.59;63.42;97139.16;4961082;28;116300;-80
2022/04/24 12:48:11;;;;;;;1.13;1.03;;;12.10;93.90;;;12.63;63.38;97140.03;4961111;28;115516;-80
2022/04/24 12:54:20;;;;;;;1.10;1.00;;;12.10;93.80;;;12.65;62.65;97137.69;4941385;28;124800;-87
2022/04/24 13:01:08;;;;;;;1.23;1.03;;;12.20;93.60;;;12.59;62.50;97141.91;4959211;28;114541;-91
2022/04/24 13:03:36;;;;;;;1.00;0.90;;;12.10;93.30;;;12.60;62.73;97138.00;4948407;28;123921;-92
2022/04/24 13:06:04;;;;;;;1.50;0.90;;;12.10;93.30;;;12.63;62.32;97128.94;4939886;28;123004;-89
2022/04/24 13:08:49;;;;;;;1.00;0.90;;;12.20;93.30;;;12.66;61.84;97139.28;4944085;28;113537;-90
2022/04/24 13:11:16;;;;;;;1.50;0.90;;;12.20;93.20;;;12.67;62.03;97131.78;4939225;28;113733;-89
2022/04/24 13:13:43;;;;;;;1.10;0.90;;;12.20;93.10;;;12.69;62.13;97135.00;4951040;28;123171;-89
2022/04/24 13:18:55;;;;;;;1.00;0.80;;;12.20;93.00;;;12.71;61.48;97141.78;4939325;28;114583;-90
2022/04/24 13:21:22;;;;;;;0.80;0.80;;;12.20;92.80;;;12.72;61.26;97139.78;4944518;28;113235;-90
2022/04/24 13:23:48;;;;;;;1.00;0.90;;;12.20;92.70;;;12.72;61.27;97140.59;4942401;28;123265;-89
2022/04/24 13:26:35;;;;;;;1.33;0.90;;;12.30;92.70;;;12.74;61.21;97143.81;4947498;28;121801;-91
2022/04/24 13:29:02;;;;;;;1.27;1.00;;;12.20;92.60;;;12.76;61.36;97135.94;4946803;28;113680;-89
2022/04/24 13:31:28;;;;;;;0.93;0.83;;;12.30;92.70;;;12.78;61.28;97141.88;4947469;28;113560;-89
2022/04/24 13:33:56;;;;;;;1.50;1.00;;;12.30;92.60;;;12.81;61.05;97148.66;4932642;28;122439;-91
2022/04/24 13:36:23;;;;;;;1.83;0.90;;;12.30;92.60;;;12.81;61.06;97152.25;4944740;28;124536;-89
2022/04/24 13:38:50;;;;;;;0.83;0.80;;;12.30;92.60;;;12.82;60.96;97156.63;4924966;28;114788;-89
2022/04/24 13:41:37;;;;;;;0.80;0.80;;;12.30;92.50;;;12.88;61.08;97148.00;4943220;28;113047;-90
2022/04/24 13:44:43;;;;;;;0.90;0.77;;;12.40;92.50;;;12.92;60.93;97157.19;4950251;28;123156;-89
2022/04/24 13:47:30;;;;;;;0.80;0.80;;;12.40;92.50;;;12.93;60.89;97167.13;4951893;28;123616;-91
2022/04/24 13:49:58;;;;;;;1.27;0.80;;;12.40;92.40;;;12.93;60.91;97167.13;4966372;28;112763;-90
2022/04/24 13:53:22;;;;;;;1.10;1.00;;;12.40;92.40;;;12.95;60.56;97170.28;4951113;28;114632;-90
2022/04/24 13:59:30;;;;;;;0.80;0.80;;;12.50;92.40;;;12.90;60.62;97174.19;4957844;28;124221;-90
2022/04/24 14:05:46;;;;;;;1.30;0.90;;;12.40;92.30;;;12.87;60.83;97190.75;4948995;28;114969;-88
2022/04/24 14:11:54;;;;;;;0.90;0.80;;;12.40;92.50;;;12.84;60.98;97178.41;4951185;28;124319;-90
2022/04/24 14:15:25;;;;;;;2.07;0.90;;;12.40;92.30;;;12.87;60.76;97190.75;4956974;28;113168;-89
2022/04/24 14:18:10;;;;;;;1.70;0.90;;;12.40;92.30;;;12.89;60.98;97193.94;4953107;28;114586;-91
2022/04/24 14:20:59;;;;;;;1.17;0.90;;;12.40;92.30;;;12.88;60.94;97187.59;4956802;28;123705;-89
2022/04/24 14:23:52;;;;;;;0.87;0.77;;;12.40;92.40;;;12.94;60.91;97196.44;4915825;28;124392;-88
2022/04/24 14:30:00;;;;;;;0.93;0.83;;;12.50;92.50;;;12.97;61.14;97207.56;4919803;28;114813;-89
2022/04/24 14:36:10;;;;;;;1.00;0.80;;;12.50;92.50;;;12.90;61.06;97213.00;4914991;28;124810;-90
2022/04/24 14:38:39;;;;;;;1.30;1.00;;;12.40;92.50;;;12.87;60.80;97216.50;4895261;28;114135;-84
2022/04/24 14:41:26;;;;;;;1.03;0.87;;;12.40;92.40;;;12.88;60.76;97225.63;4918491;28;115724;-90